createdAt,value
2019-02-15T00:00:34.519Z,4.29
2019-02-15T00:01:34.488Z,4.34
2019-02-15T00:02:34.473Z,4.19
2019-02-15T00:03:34.461Z,4.24
2019-02-15T00:04:34.453Z,4.18
2019-02-15T00:05:34.456Z,4.16
2019-02-15T00:06:34.433Z,4.16
2019-02-15T00:07:34.420Z,4.18
2019-02-15T00:08:34.408Z,4.22
2019-02-15T00:09:34.399Z,4.32
2019-02-15T00:10:34.407Z,4.21
2019-02-15T00:11:34.378Z,4.28
2019-02-15T00:12:34.371Z,4.28
2019-02-15T00:13:34.363Z,4.33
2019-02-15T00:14:34.347Z,4.33
2019-02-15T00:15:34.348Z,4.40
2019-02-15T00:16:34.346Z,4.39
2019-02-15T00:17:34.317Z,4.28
2019-02-15T00:18:34.311Z,4.25
2019-02-15T00:19:34.298Z,4.37
2019-02-15T00:20:34.295Z,4.40
2019-02-15T00:21:34.287Z,4.33
2019-02-15T00:22:34.259Z,4.26
2019-02-15T00:23:34.256Z,4.36
2019-02-15T00:24:34.240Z,4.21
2019-02-15T00:25:34.275Z,4.06
2019-02-15T00:26:34.223Z,4.08
2019-02-15T00:27:34.218Z,4.12
2019-02-15T00:28:34.195Z,4.01
2019-02-15T00:29:34.184Z,4.04
2019-02-15T00:30:34.174Z,3.92
2019-02-15T00:31:34.179Z,3.92
2019-02-15T00:32:34.151Z,3.97
2019-02-15T00:33:34.149Z,3.98
2019-02-15T00:34:34.146Z,4.06
2019-02-15T00:35:34.127Z,4.04
2019-02-15T00:36:34.124Z,4.04
2019-02-15T00:37:34.102Z,4.07
2019-02-15T00:38:34.091Z,4.04
2019-02-15T00:39:34.081Z,4.03
2019-02-15T00:40:34.075Z,4.10
2019-02-15T00:41:34.078Z,4.03
2019-02-15T00:42:34.053Z,4.07
2019-02-15T00:43:34.044Z,4.08
2019-02-15T00:44:34.029Z,4.08
2019-02-15T00:45:34.031Z,4.01
2019-02-15T00:46:34.019Z,4.04
2019-02-15T00:47:34.010Z,3.98
2019-02-15T00:48:33.983Z,3.97
2019-02-15T00:49:33.975Z,3.88
2019-02-15T00:50:33.972Z,3.92
2019-02-15T00:51:33.971Z,3.98
2019-02-15T00:52:33.941Z,3.94
2019-02-15T00:53:33.930Z,4.06
2019-02-15T00:54:33.918Z,3.92
2019-02-15T00:55:33.916Z,3.94
2019-02-15T00:56:33.913Z,4.03
2019-02-15T00:57:33.887Z,3.98
2019-02-15T00:58:33.877Z,4.12
2019-02-15T00:59:33.865Z,4.03
2019-02-15T01:00:33.854Z,3.94
2019-02-15T01:01:33.865Z,3.96
2019-02-15T01:02:33.839Z,3.98
2019-02-15T01:03:33.822Z,3.97
2019-02-15T01:04:33.813Z,3.85
2019-02-15T01:05:33.803Z,3.88
2019-02-15T01:06:33.806Z,3.85
2019-02-15T01:07:33.783Z,3.80
2019-02-15T01:08:33.788Z,3.70
2019-02-15T01:09:33.764Z,3.72
2019-02-15T01:10:34.373Z,3.78
2019-02-15T01:11:33.783Z,3.70
2019-02-15T01:12:33.728Z,3.79
2019-02-15T01:13:33.728Z,3.70
2019-02-15T01:14:33.705Z,3.64
2019-02-15T01:15:33.713Z,3.64
2019-02-15T01:16:33.684Z,3.65
2019-02-15T01:17:33.697Z,3.58
2019-02-15T01:18:33.680Z,3.54
2019-02-15T01:19:33.657Z,3.53
2019-02-15T01:20:33.643Z,3.60
2019-02-15T01:21:33.631Z,3.60
2019-02-15T01:22:33.635Z,3.64
2019-02-15T01:23:33.612Z,3.64
2019-02-15T01:24:33.622Z,3.68
2019-02-15T01:25:33.602Z,3.64
2019-02-15T01:26:33.579Z,3.68
2019-02-15T01:27:33.584Z,3.75
2019-02-15T01:28:33.561Z,3.71
2019-02-15T01:29:33.546Z,3.79
2019-02-15T01:30:33.537Z,3.71
2019-02-15T01:31:33.531Z,3.72
2019-02-15T01:32:33.527Z,3.70
2019-02-15T01:33:33.505Z,3.76
2019-02-15T01:34:33.499Z,3.70
2019-02-15T01:35:33.484Z,3.68
2019-02-15T01:36:33.476Z,3.72
2019-02-15T01:37:33.789Z,3.62
2019-02-15T01:38:33.452Z,3.58
2019-02-15T01:39:33.444Z,3.54
2019-02-15T01:40:33.430Z,3.43
2019-02-15T01:41:33.421Z,3.44
2019-02-15T01:42:33.420Z,3.50
2019-02-15T01:43:39.889Z,3.36
2019-02-15T01:44:34.384Z,3.34
2019-02-15T01:45:33.377Z,3.34
2019-02-15T01:46:33.365Z,3.36
2019-02-15T01:47:33.356Z,3.31
2019-02-15T01:48:33.356Z,3.27
2019-02-15T01:49:33.372Z,3.24
2019-02-15T01:50:33.324Z,3.30
2019-02-15T01:51:33.313Z,3.23
2019-02-15T01:52:33.300Z,3.25
2019-02-15T01:53:33.310Z,3.24
2019-02-15T01:54:33.280Z,3.28
2019-02-15T01:55:33.290Z,3.27
2019-02-15T01:56:33.270Z,3.28
2019-02-15T01:57:33.249Z,3.25
2019-02-15T01:58:33.252Z,3.21
2019-02-15T01:59:33.227Z,3.21
2019-02-15T02:00:33.224Z,3.20
2019-02-15T02:01:33.207Z,3.13
2019-02-15T02:02:33.196Z,3.07
2019-02-15T02:03:33.195Z,3.03
2019-02-15T02:04:33.175Z,3.06
2019-02-15T02:05:33.180Z,3.05
2019-02-15T02:06:33.158Z,2.94
2019-02-15T02:07:33.140Z,3.00
2019-02-15T02:08:33.152Z,3.03
2019-02-15T02:09:33.127Z,2.98
2019-02-15T02:10:33.124Z,2.94
2019-02-15T02:11:33.100Z,2.95
2019-02-15T02:12:33.096Z,3.09
2019-02-15T02:13:33.387Z,3.03
2019-02-15T02:14:33.067Z,3.02
2019-02-15T02:15:33.055Z,3.02
2019-02-15T02:16:33.051Z,2.97
2019-02-15T02:17:33.033Z,3.06
2019-02-15T02:18:33.034Z,3.13
2019-02-15T02:19:33.024Z,3.07
2019-02-15T02:20:33.005Z,3.12
2019-02-15T02:21:32.993Z,3.09
2019-02-15T02:22:32.986Z,3.12
2019-02-15T02:23:32.976Z,3.20
2019-02-15T02:24:32.982Z,3.25
2019-02-15T02:25:32.950Z,3.15
2019-02-15T02:26:32.940Z,3.13
2019-02-15T02:27:32.928Z,3.12
2019-02-15T02:28:32.918Z,3.16
2019-02-15T02:29:32.919Z,3.21
2019-02-15T02:30:32.918Z,3.13
2019-02-15T02:31:32.890Z,3.13
2019-02-15T02:32:32.877Z,3.10
2019-02-15T02:33:32.863Z,3.16
2019-02-15T02:34:32.865Z,3.09
2019-02-15T02:35:32.852Z,3.12
2019-02-15T02:36:32.831Z,3.18
2019-02-15T02:37:32.823Z,3.23
2019-02-15T02:38:32.811Z,3.25
2019-02-15T02:39:32.818Z,3.21
2019-02-15T02:40:32.801Z,3.18
2019-02-15T02:41:32.791Z,3.18
2019-02-15T02:42:32.767Z,3.21
2019-02-15T02:43:32.757Z,3.09
2019-02-15T02:44:32.785Z,3.27
2019-02-15T02:45:32.735Z,3.27
2019-02-15T02:46:32.733Z,3.20
2019-02-15T02:47:32.717Z,3.21
2019-02-15T02:48:32.711Z,3.16
2019-02-15T02:49:32.694Z,3.18
2019-02-15T02:50:32.696Z,3.12
2019-02-15T02:51:32.676Z,3.16
2019-02-15T02:52:32.680Z,3.12
2019-02-15T02:53:32.652Z,3.15
2019-02-15T02:54:32.645Z,3.05
2019-02-15T02:55:32.638Z,3.15
2019-02-15T02:56:32.618Z,3.05
2019-02-15T02:57:32.610Z,3.03
2019-02-15T02:58:32.606Z,2.97
2019-02-15T02:59:32.590Z,2.98
2019-02-15T03:00:33.709Z,2.89
2019-02-15T03:01:32.572Z,2.95
2019-02-15T03:02:32.569Z,2.92
2019-02-15T03:03:32.546Z,2.71
2019-02-15T03:04:32.544Z,2.70
2019-02-15T03:05:32.534Z,2.58
2019-02-15T03:06:32.513Z,2.49
2019-02-15T03:07:32.500Z,2.37
2019-02-15T03:08:32.490Z,2.38
2019-02-15T03:09:32.510Z,2.35
2019-02-15T03:10:32.491Z,2.30
2019-02-15T03:11:32.461Z,2.26
2019-02-15T03:12:32.450Z,2.17
2019-02-15T03:13:32.438Z,2.22
2019-02-15T03:14:32.427Z,2.23
2019-02-15T03:15:32.426Z,2.19
2019-02-15T03:16:32.406Z,2.26
2019-02-15T03:17:32.398Z,2.33
2019-02-15T03:18:32.394Z,2.35
2019-02-15T03:19:32.374Z,2.38
2019-02-15T03:20:32.398Z,2.44
2019-02-15T03:21:32.353Z,2.49
2019-02-15T03:22:32.349Z,2.53
2019-02-15T03:23:32.346Z,2.58
2019-02-15T03:24:32.321Z,2.61
2019-02-15T03:25:32.309Z,2.59
2019-02-15T03:26:32.314Z,2.58
2019-02-15T03:27:32.300Z,2.59
2019-02-15T03:28:32.289Z,2.64
2019-02-15T03:29:32.279Z,2.59
2019-02-15T03:30:32.256Z,2.64
2019-02-15T03:31:32.285Z,2.70
2019-02-15T03:32:32.248Z,2.69
2019-02-15T03:33:32.230Z,2.81
2019-02-15T03:34:32.214Z,2.76
2019-02-15T03:35:32.205Z,2.71
2019-02-15T03:36:32.202Z,2.76
2019-02-15T03:37:32.197Z,2.71
2019-02-15T03:38:32.170Z,2.77
2019-02-15T03:39:32.169Z,2.74
2019-02-15T03:40:32.150Z,2.76
2019-02-15T03:41:32.175Z,2.74
2019-02-15T03:42:32.129Z,2.73
2019-02-15T03:43:32.116Z,2.73
2019-02-15T03:44:32.109Z,2.63
2019-02-15T03:45:32.095Z,2.67
2019-02-15T03:46:32.099Z,2.67
2019-02-15T03:47:32.073Z,2.56
2019-02-15T03:48:32.066Z,2.56
2019-02-15T03:49:32.051Z,2.46
2019-02-15T03:50:32.042Z,2.41
2019-02-15T03:51:32.052Z,2.45
2019-02-15T03:52:32.020Z,2.52
2019-02-15T03:53:32.011Z,2.53
2019-02-15T03:54:31.999Z,2.51
2019-02-15T03:55:31.993Z,2.55
2019-02-15T03:56:31.990Z,2.52
2019-02-15T03:57:31.967Z,2.52
2019-02-15T03:58:31.958Z,2.63
2019-02-15T03:59:31.949Z,2.52
2019-02-15T04:00:31.934Z,2.58
2019-02-15T04:01:31.938Z,2.55
2019-02-15T04:02:31.913Z,2.66
2019-02-15T04:03:31.916Z,2.66
2019-02-15T04:04:31.893Z,2.67
2019-02-15T04:05:31.880Z,2.63
2019-02-15T04:06:31.889Z,2.66
2019-02-15T04:07:31.862Z,2.73
2019-02-15T04:08:31.859Z,2.49
2019-02-15T04:09:31.865Z,2.49
2019-02-15T04:10:31.826Z,2.49
2019-02-15T04:11:31.827Z,2.38
2019-02-15T04:12:32.374Z,2.48
2019-02-15T04:13:31.797Z,2.40
2019-02-15T04:14:33.126Z,2.40
2019-02-15T04:15:31.783Z,2.40
2019-02-15T04:16:31.774Z,2.35
2019-02-15T04:17:31.752Z,2.33
2019-02-15T04:18:31.744Z,2.34
2019-02-15T04:19:31.732Z,2.35
2019-02-15T04:20:31.724Z,2.38
2019-02-15T04:21:31.747Z,2.33
2019-02-15T04:22:31.701Z,2.31
2019-02-15T04:23:31.690Z,2.34
2019-02-15T04:24:31.680Z,2.45
2019-02-15T04:25:31.665Z,2.44
2019-02-15T04:26:31.662Z,2.46
2019-02-15T04:27:31.662Z,2.48
2019-02-15T04:28:31.635Z,2.51
2019-02-15T04:29:31.631Z,2.51
2019-02-15T04:30:31.615Z,2.44
2019-02-15T04:31:31.610Z,2.48
2019-02-15T04:32:31.603Z,2.41
2019-02-15T04:33:31.584Z,2.45
2019-02-15T04:34:31.570Z,2.37
2019-02-15T04:35:31.564Z,2.33
2019-02-15T04:36:31.560Z,2.26
2019-02-15T04:37:31.563Z,2.23
2019-02-15T04:38:31.529Z,2.19
2019-02-15T04:39:31.523Z,2.19
2019-02-15T04:40:31.508Z,2.23
2019-02-15T04:41:31.497Z,2.19
2019-02-15T04:42:31.495Z,2.17
2019-02-15T04:43:31.486Z,2.17
2019-02-15T04:44:31.468Z,2.12
2019-02-15T04:45:31.452Z,2.08
2019-02-15T04:46:31.441Z,2.04
2019-02-15T04:47:31.444Z,2.17
2019-02-15T04:48:31.423Z,2.20
2019-02-15T04:49:31.410Z,2.17
2019-02-15T04:50:31.401Z,2.16
2019-02-15T04:51:31.402Z,2.23
2019-02-15T04:52:31.417Z,2.16
2019-02-15T04:53:31.369Z,2.17
2019-02-15T04:54:31.360Z,2.23
2019-02-15T04:55:31.359Z,2.26
2019-02-15T04:56:31.342Z,2.23
2019-02-15T04:57:31.342Z,2.30
2019-02-15T04:58:31.314Z,2.31
2019-02-15T04:59:31.304Z,2.33
2019-02-15T05:00:31.304Z,2.35
2019-02-15T05:01:31.286Z,2.26
2019-02-15T05:02:31.297Z,2.33
2019-02-15T05:03:31.261Z,2.28
2019-02-15T05:04:31.252Z,2.26
2019-02-15T05:05:31.241Z,2.28
2019-02-15T05:06:31.235Z,2.33
2019-02-15T05:07:31.250Z,2.31
2019-02-15T05:08:31.211Z,2.33
2019-02-15T05:09:31.228Z,2.30
2019-02-15T05:10:31.187Z,2.35
2019-02-15T05:11:31.180Z,2.33
2019-02-15T05:12:31.182Z,2.33
2019-02-15T05:13:31.161Z,2.35
2019-02-15T05:14:31.145Z,2.31
2019-02-15T05:15:31.137Z,2.31
2019-02-15T05:16:31.125Z,2.44
2019-02-15T05:17:31.126Z,2.44
2019-02-15T05:18:31.119Z,2.35
2019-02-15T05:19:31.091Z,2.37
2019-02-15T05:20:31.081Z,2.44
2019-02-15T05:21:31.070Z,2.35
2019-02-15T05:22:31.079Z,2.45
2019-02-15T05:23:31.049Z,2.40
2019-02-15T05:24:31.040Z,2.30
2019-02-15T05:25:31.030Z,2.34
2019-02-15T05:26:31.018Z,2.20
2019-02-15T05:27:31.027Z,2.19
2019-02-15T05:28:31.002Z,2.17
2019-02-15T05:29:30.985Z,2.20
2019-02-15T05:30:30.976Z,2.13
2019-02-15T05:31:30.969Z,2.10
2019-02-15T05:32:30.963Z,2.15
2019-02-15T05:33:30.942Z,2.17
2019-02-15T05:34:30.939Z,2.17
2019-02-15T05:35:30.926Z,2.19
2019-02-15T05:36:30.912Z,2.26
2019-02-15T05:37:30.923Z,2.28
2019-02-15T05:38:30.890Z,2.28
2019-02-15T05:39:30.881Z,2.40
2019-02-15T05:40:30.879Z,2.33
2019-02-15T05:41:30.865Z,2.34
2019-02-15T05:42:30.909Z,2.28
2019-02-15T05:43:30.834Z,2.33
2019-02-15T05:44:30.831Z,2.37
2019-02-15T05:45:30.814Z,2.38
2019-02-15T05:46:30.804Z,2.33
2019-02-15T05:47:30.796Z,2.35
2019-02-15T05:48:30.796Z,2.38
2019-02-15T05:49:30.771Z,2.35
2019-02-15T05:50:30.764Z,2.34
2019-02-15T05:51:30.751Z,2.35
2019-02-15T05:52:30.751Z,2.30
2019-02-15T05:53:30.744Z,2.30
2019-02-15T05:54:30.729Z,2.23
2019-02-15T05:55:30.708Z,2.26
2019-02-15T05:56:30.709Z,2.20
2019-02-15T05:57:30.688Z,2.19
2019-02-15T05:58:30.695Z,2.16
2019-02-15T05:59:30.669Z,2.10
2019-02-15T06:00:37.014Z,2.10
2019-02-15T06:01:31.651Z,2.04
2019-02-15T06:02:30.635Z,2.09
2019-02-15T06:03:30.642Z,2.19
2019-02-15T06:04:30.618Z,1.99
2019-02-15T06:05:30.603Z,2.04
2019-02-15T06:06:30.596Z,2.01
2019-02-15T06:07:30.583Z,2.09
2019-02-15T06:08:31.371Z,1.93
2019-02-15T06:09:30.562Z,1.97
2019-02-15T06:10:30.550Z,1.97
2019-02-15T06:11:30.543Z,2.04
2019-02-15T06:12:30.555Z,1.90
2019-02-15T06:13:30.985Z,1.93
2019-02-15T06:14:30.522Z,2.01
2019-02-15T06:15:30.503Z,1.93
2019-02-15T06:16:30.489Z,1.94
2019-02-15T06:17:30.474Z,1.97
2019-02-15T06:18:30.477Z,1.99
2019-02-15T06:19:30.483Z,2.12
2019-02-15T06:20:30.466Z,2.12
2019-02-15T06:21:30.456Z,2.02
2019-02-15T06:22:30.450Z,2.02
2019-02-15T06:23:30.459Z,2.01
2019-02-15T06:24:30.404Z,2.01
2019-02-15T06:25:30.396Z,2.12
2019-02-15T06:26:30.381Z,2.13
2019-02-15T06:27:30.377Z,2.15
2019-02-15T06:28:30.371Z,2.19
2019-02-15T06:29:30.356Z,2.19
2019-02-15T06:30:30.340Z,2.19
2019-02-15T06:31:30.343Z,2.26
2019-02-15T06:32:30.316Z,2.33
2019-02-15T06:33:30.327Z,2.52
2019-02-15T06:34:30.299Z,2.58
2019-02-15T06:35:30.289Z,2.61
2019-02-15T06:36:30.278Z,2.77
2019-02-15T06:37:30.267Z,2.94
2019-02-15T06:38:34.769Z,3.05
2019-02-15T06:39:30.244Z,3.30
2019-02-15T06:40:30.238Z,3.54
2019-02-15T06:41:30.268Z,3.82
2019-02-15T06:42:30.237Z,3.94
2019-02-15T06:43:30.210Z,4.15
2019-02-15T06:44:30.188Z,4.43
2019-02-15T06:45:30.185Z,4.62
2019-02-15T06:46:30.168Z,4.75
2019-02-15T06:47:30.156Z,5.04
2019-02-15T06:48:30.159Z,5.14
2019-02-15T06:49:30.138Z,5.45
2019-02-15T06:50:30.125Z,5.74
2019-02-15T06:51:30.117Z,5.96
2019-02-15T06:52:30.104Z,6.25
2019-02-15T06:53:30.157Z,6.66
2019-02-15T06:54:30.086Z,7.02
2019-02-15T06:55:30.078Z,7.49
2019-02-15T06:56:30.066Z,7.72
2019-02-15T06:57:30.051Z,8.03
2019-02-15T06:58:31.814Z,8.32
2019-02-15T06:59:30.049Z,8.53
2019-02-15T07:00:30.016Z,8.71
2019-02-15T07:01:30.008Z,8.94
2019-02-15T07:02:29.998Z,9.25
2019-02-15T07:03:30.003Z,9.43
2019-02-15T07:04:29.990Z,9.79
2019-02-15T07:05:29.965Z,9.82
2019-02-15T07:06:29.952Z,9.85
2019-02-15T07:07:29.965Z,10.06
2019-02-15T07:08:29.937Z,10.18
2019-02-15T07:09:29.960Z,10.42
2019-02-15T07:10:29.920Z,10.52
2019-02-15T07:11:29.897Z,10.63
2019-02-15T07:12:29.888Z,10.78
2019-02-15T07:13:29.878Z,10.95
2019-02-15T07:14:29.879Z,11.06
2019-02-15T07:15:33.761Z,11.20
2019-02-15T07:16:29.847Z,11.35
2019-02-15T07:17:29.833Z,11.39
2019-02-15T07:18:29.822Z,11.29
2019-02-15T07:19:29.826Z,11.19
2019-02-15T07:20:29.803Z,11.20
2019-02-15T07:21:29.806Z,11.31
2019-02-15T07:22:29.781Z,11.36
2019-02-15T07:23:29.770Z,11.43
2019-02-15T07:24:29.769Z,11.67
2019-02-15T07:25:29.745Z,11.99
2019-02-15T07:26:29.752Z,12.38
2019-02-15T07:27:29.739Z,12.66
2019-02-15T07:28:29.723Z,12.64
2019-02-15T07:29:29.985Z,12.79
2019-02-15T07:30:29.701Z,12.85
2019-02-15T07:31:29.681Z,13.17
2019-02-15T07:32:29.686Z,13.32
2019-02-15T07:33:29.658Z,13.44
2019-02-15T07:34:29.663Z,13.65
2019-02-15T07:35:29.640Z,13.67
2019-02-15T07:36:29.647Z,13.73
2019-02-15T07:37:29.624Z,13.94
2019-02-15T07:38:29.608Z,13.98
2019-02-15T07:39:29.606Z,14.19
2019-02-15T07:40:29.584Z,14.16
2019-02-15T07:41:29.573Z,14.44
2019-02-15T07:42:29.561Z,14.53
2019-02-15T07:43:29.562Z,14.64
2019-02-15T07:44:29.576Z,14.81
2019-02-15T07:45:29.530Z,14.81
2019-02-15T07:46:29.523Z,14.93
2019-02-15T07:47:29.511Z,15.05
2019-02-15T07:48:29.502Z,15.19
2019-02-15T07:49:29.501Z,15.23
2019-02-15T07:50:29.484Z,15.41
2019-02-15T07:51:29.463Z,15.48
2019-02-15T07:52:29.452Z,15.52
2019-02-15T07:53:29.446Z,15.60
2019-02-15T07:54:29.478Z,15.67
2019-02-15T07:55:29.419Z,15.61
2019-02-15T07:56:29.412Z,15.63
2019-02-15T07:57:29.417Z,15.66
2019-02-15T07:58:29.385Z,15.72
2019-02-15T07:59:29.385Z,15.81
2019-02-15T08:00:29.405Z,15.89
2019-02-15T08:01:29.354Z,16.03
2019-02-15T08:02:29.345Z,16.09
2019-02-15T08:03:29.338Z,16.25
2019-02-15T08:04:29.321Z,16.37
2019-02-15T08:05:29.320Z,16.31
2019-02-15T08:06:29.322Z,16.16
2019-02-15T08:07:29.290Z,15.97
2019-02-15T08:08:29.278Z,16.00
2019-02-15T08:09:29.274Z,15.96
2019-02-15T08:10:29.271Z,15.97
2019-02-15T08:11:29.250Z,15.86
2019-02-15T08:12:29.236Z,15.79
2019-02-15T08:13:29.227Z,15.94
2019-02-15T08:14:29.230Z,16.01
2019-02-15T08:15:35.843Z,15.99
2019-02-15T08:16:30.193Z,15.97
2019-02-15T08:17:29.192Z,15.92
2019-02-15T08:18:29.189Z,16.00
2019-02-15T08:19:29.163Z,15.89
2019-02-15T08:20:29.167Z,15.94
2019-02-15T08:21:29.150Z,15.84
2019-02-15T08:22:29.139Z,15.75
2019-02-15T08:23:29.121Z,15.60
2019-02-15T08:24:29.105Z,15.46
2019-02-15T08:25:29.109Z,15.33
2019-02-15T08:26:29.090Z,15.24
2019-02-15T08:27:29.088Z,15.20
2019-02-15T08:28:29.064Z,15.17
2019-02-15T08:29:29.055Z,15.26
2019-02-15T08:30:29.055Z,15.26
2019-02-15T08:31:29.037Z,15.17
2019-02-15T08:32:29.033Z,15.05
2019-02-15T08:33:29.006Z,15.08
2019-02-15T08:34:29.002Z,15.28
2019-02-15T08:35:29.006Z,15.02
2019-02-15T08:36:28.976Z,15.09
2019-02-15T08:37:28.970Z,15.15
2019-02-15T08:38:28.960Z,15.12
2019-02-15T08:39:28.950Z,14.86
2019-02-15T08:40:29.064Z,14.64
2019-02-15T08:41:28.927Z,14.44
2019-02-15T08:42:28.917Z,14.21
2019-02-15T08:43:28.901Z,13.77
2019-02-15T08:44:28.892Z,13.62
2019-02-15T08:45:28.915Z,13.61
2019-02-15T08:46:28.882Z,14.16
2019-02-15T08:47:28.860Z,14.35
2019-02-15T08:48:28.851Z,14.50
2019-02-15T08:49:28.850Z,14.64
2019-02-15T08:50:28.842Z,14.95
2019-02-15T08:51:28.818Z,15.20
2019-02-15T08:52:28.808Z,15.12
2019-02-15T08:53:28.799Z,15.09
2019-02-15T08:54:28.783Z,14.84
2019-02-15T08:55:28.811Z,14.61
2019-02-15T08:56:28.763Z,14.14
2019-02-15T08:57:28.758Z,13.79
2019-02-15T08:58:28.738Z,13.58
2019-02-15T08:59:28.727Z,13.30
2019-02-15T09:00:28.739Z,13.15
2019-02-15T09:01:28.702Z,13.07
2019-02-15T09:02:28.692Z,13.06
2019-02-15T09:03:28.681Z,13.11
2019-02-15T09:04:28.667Z,12.93
2019-02-15T09:05:28.674Z,13.07
2019-02-15T09:06:28.655Z,13.29
2019-02-15T09:07:28.635Z,13.52
2019-02-15T09:08:30.011Z,13.65
2019-02-15T09:09:28.612Z,13.67
2019-02-15T09:10:28.665Z,13.73
2019-02-15T09:11:28.591Z,13.80
2019-02-15T09:12:28.584Z,14.07
2019-02-15T09:13:28.571Z,14.27
2019-02-15T09:14:28.559Z,14.50
2019-02-15T09:15:28.548Z,14.60
2019-02-15T09:16:28.555Z,14.75
2019-02-15T09:17:28.527Z,15.05
2019-02-15T09:18:28.528Z,15.31
2019-02-15T09:19:28.504Z,15.26
2019-02-15T09:20:28.507Z,15.28
2019-02-15T09:21:28.518Z,15.23
2019-02-15T09:22:28.491Z,15.43
2019-02-15T09:23:28.461Z,15.59
2019-02-15T09:24:28.448Z,15.85
2019-02-15T09:25:28.438Z,16.01
2019-02-15T09:26:28.437Z,15.96
2019-02-15T09:27:28.446Z,16.01
2019-02-15T09:28:29.165Z,16.00
2019-02-15T09:29:28.392Z,16.03
2019-02-15T09:30:28.380Z,16.12
2019-02-15T09:31:28.381Z,15.99
2019-02-15T09:32:28.375Z,15.64
2019-02-15T09:33:28.348Z,15.43
2019-02-15T09:34:28.337Z,15.43
2019-02-15T09:35:28.328Z,15.39
2019-02-15T09:36:28.329Z,15.48
2019-02-15T09:37:28.305Z,15.31
2019-02-15T09:38:28.297Z,15.42
2019-02-15T09:39:28.286Z,15.52
2019-02-15T09:40:28.274Z,15.64
2019-02-15T09:41:28.275Z,15.86
2019-02-15T09:42:28.249Z,15.94
2019-02-15T09:43:28.245Z,16.04
2019-02-15T09:44:28.234Z,15.97
2019-02-15T09:45:28.216Z,16.00
2019-02-15T09:46:28.216Z,15.84
2019-02-15T09:47:28.195Z,15.75
2019-02-15T09:48:28.191Z,15.81
2019-02-15T09:49:28.177Z,15.72
2019-02-15T09:50:28.163Z,15.60
2019-02-15T09:51:28.179Z,15.48
2019-02-15T09:52:28.146Z,15.51
2019-02-15T09:53:28.132Z,15.45
2019-02-15T09:54:28.125Z,15.54
2019-02-15T09:55:28.110Z,15.61
2019-02-15T09:56:28.110Z,15.56
2019-02-15T09:57:28.090Z,15.48
2019-02-15T09:58:28.078Z,15.24
2019-02-15T09:59:28.065Z,15.21
2019-02-15T10:00:28.059Z,15.17
2019-02-15T10:01:28.055Z,15.27
2019-02-15T10:02:28.030Z,15.28
2019-02-15T10:03:28.019Z,15.26
2019-02-15T10:04:28.010Z,15.21
2019-02-15T10:05:27.999Z,15.12
2019-02-15T10:06:27.999Z,15.09
2019-02-15T10:07:27.977Z,15.12
2019-02-15T10:08:27.978Z,15.20
2019-02-15T10:09:27.958Z,15.11
2019-02-15T10:10:27.974Z,15.21
2019-02-15T10:11:27.944Z,15.13
2019-02-15T10:12:27.921Z,15.13
2019-02-15T10:13:27.922Z,15.12
2019-02-15T10:14:27.896Z,15.01
2019-02-15T10:15:27.891Z,15.08
2019-02-15T10:16:30.712Z,14.99
2019-02-15T10:17:27.873Z,14.94
2019-02-15T10:18:27.853Z,14.88
2019-02-15T10:19:27.845Z,14.88
2019-02-15T10:20:27.839Z,14.88
2019-02-15T10:21:27.853Z,14.87
2019-02-15T10:22:27.812Z,14.91
2019-02-15T10:23:27.805Z,15.01
2019-02-15T10:24:27.792Z,14.93
2019-02-15T10:25:27.784Z,14.95
2019-02-15T10:26:27.795Z,14.99
2019-02-15T10:27:27.777Z,14.88
2019-02-15T10:28:27.750Z,14.98
2019-02-15T10:29:27.732Z,14.90
2019-02-15T10:30:27.728Z,14.78
2019-02-15T10:31:27.716Z,14.74
2019-02-15T10:32:27.721Z,14.72
2019-02-15T10:33:27.690Z,14.75
2019-02-15T10:34:27.698Z,14.75
2019-02-15T10:35:27.686Z,14.67
2019-02-15T10:36:27.660Z,14.64
2019-02-15T10:37:27.716Z,14.75
2019-02-15T10:38:27.645Z,14.69
2019-02-15T10:39:27.644Z,14.75
2019-02-15T10:40:27.617Z,14.72
2019-02-15T10:41:27.603Z,14.61
2019-02-15T10:42:27.606Z,14.64
2019-02-15T10:43:27.597Z,14.67
2019-02-15T10:44:27.575Z,14.53
2019-02-15T10:45:27.560Z,14.50
2019-02-15T10:46:27.546Z,14.35
2019-02-15T10:47:27.560Z,14.27
2019-02-15T10:48:27.528Z,14.12
2019-02-15T10:49:27.519Z,13.92
2019-02-15T10:50:27.510Z,13.88
2019-02-15T10:51:27.507Z,13.79
2019-02-15T10:52:27.501Z,13.73
2019-02-15T10:53:27.471Z,13.69
2019-02-15T10:54:27.466Z,13.62
2019-02-15T10:55:27.448Z,13.59
2019-02-15T10:56:27.449Z,13.51
2019-02-15T10:57:27.445Z,13.46
2019-02-15T10:58:27.414Z,13.49
2019-02-15T10:59:27.404Z,13.38
2019-02-15T11:00:27.392Z,13.32
2019-02-15T11:01:27.382Z,13.29
2019-02-15T11:02:27.385Z,13.27
2019-02-15T11:03:27.365Z,13.24
2019-02-15T11:04:27.364Z,13.18
2019-02-15T11:05:27.345Z,13.25
2019-02-15T11:06:27.325Z,13.17
2019-02-15T11:07:27.329Z,13.20
2019-02-15T11:08:27.305Z,13.11
2019-02-15T11:09:27.308Z,13.00
2019-02-15T11:10:27.286Z,13.09
2019-02-15T11:11:27.276Z,13.04
2019-02-15T11:12:27.275Z,13.02
2019-02-15T11:13:27.253Z,12.97
2019-02-15T11:14:27.241Z,12.97
2019-02-15T11:15:27.229Z,12.96
2019-02-15T11:16:27.236Z,12.93
2019-02-15T11:17:27.237Z,12.92
2019-02-15T11:18:27.197Z,12.93
2019-02-15T11:19:27.183Z,12.88
2019-02-15T11:20:27.209Z,12.92
2019-02-15T11:21:27.163Z,12.87
2019-02-15T11:22:27.162Z,12.85
2019-02-15T11:23:27.140Z,12.84
2019-02-15T11:24:27.138Z,12.87
2019-02-15T11:25:27.126Z,12.92
2019-02-15T11:26:27.115Z,12.85
2019-02-15T11:27:27.106Z,12.84
2019-02-15T11:28:27.093Z,12.87
2019-02-15T11:29:27.089Z,12.88
2019-02-15T11:30:27.069Z,12.81
2019-02-15T11:31:27.060Z,12.92
2019-02-15T11:32:27.065Z,12.85
2019-02-15T11:33:27.039Z,12.84
2019-02-15T11:34:27.026Z,12.87
2019-02-15T11:35:27.008Z,12.87
2019-02-15T11:36:26.997Z,12.84
2019-02-15T11:37:27.020Z,12.88
2019-02-15T11:38:26.985Z,12.95
2019-02-15T11:39:26.969Z,12.89
2019-02-15T11:40:26.955Z,12.92
2019-02-15T11:41:26.946Z,12.93
2019-02-15T11:42:26.933Z,12.96
2019-02-15T11:43:26.947Z,12.93
2019-02-15T11:44:26.920Z,13.02
2019-02-15T11:45:26.901Z,12.97
2019-02-15T11:46:26.889Z,12.92
2019-02-15T11:47:26.880Z,12.99
2019-02-15T11:48:26.880Z,12.92
2019-02-15T11:49:26.875Z,12.93
2019-02-15T11:50:26.845Z,12.93
2019-02-15T11:51:26.834Z,12.96
2019-02-15T11:52:26.822Z,12.96
2019-02-15T11:53:26.823Z,12.92
2019-02-15T11:54:26.809Z,12.93
2019-02-15T11:55:26.795Z,12.89
2019-02-15T11:56:26.790Z,12.99
2019-02-15T11:57:26.767Z,12.93
2019-02-15T11:58:26.771Z,13.02
2019-02-15T11:59:26.745Z,12.99
2019-02-15T12:00:26.740Z,12.95
2019-02-15T12:01:26.736Z,12.99
2019-02-15T12:02:26.709Z,13.02
2019-02-15T12:03:26.710Z,13.04
2019-02-15T12:04:26.694Z,13.06
2019-02-15T12:05:26.687Z,13.14
2019-02-15T12:06:26.675Z,13.14
2019-02-15T12:07:26.683Z,13.15
2019-02-15T12:08:26.668Z,13.15
2019-02-15T12:09:26.893Z,13.12
2019-02-15T12:10:26.644Z,13.06
2019-02-15T12:11:26.615Z,13.11
2019-02-15T12:12:26.601Z,13.06
2019-02-15T12:13:26.637Z,13.04
2019-02-15T12:14:26.581Z,13.02
2019-02-15T12:15:26.578Z,13.14
2019-02-15T12:16:26.558Z,13.07
2019-02-15T12:17:26.546Z,13.03
2019-02-15T12:18:26.546Z,13.02
2019-02-15T12:19:26.526Z,13.11
2019-02-15T12:20:26.509Z,13.09
2019-02-15T12:21:26.501Z,13.09
2019-02-15T12:22:26.496Z,13.03
2019-02-15T12:23:28.455Z,13.03
2019-02-15T12:24:26.476Z,13.00
2019-02-15T12:25:26.457Z,13.03
2019-02-15T12:26:26.446Z,13.14
2019-02-15T12:27:26.438Z,13.15
2019-02-15T12:28:26.462Z,13.15
2019-02-15T12:29:26.417Z,13.14
2019-02-15T12:30:26.408Z,13.03
2019-02-15T12:31:26.421Z,13.17
2019-02-15T12:32:26.383Z,13.02
2019-02-15T12:33:26.385Z,13.17
2019-02-15T12:34:26.362Z,13.09
2019-02-15T12:35:26.347Z,13.09
2019-02-15T12:36:26.349Z,13.06
2019-02-15T12:37:26.335Z,13.20
2019-02-15T12:38:26.347Z,13.00
2019-02-15T12:39:26.316Z,13.18
2019-02-15T12:40:26.293Z,13.09
2019-02-15T12:41:26.301Z,13.06
2019-02-15T12:42:26.273Z,13.04
2019-02-15T12:43:26.279Z,13.03
2019-02-15T12:44:27.709Z,13.15
2019-02-15T12:45:26.241Z,13.09
2019-02-15T12:46:26.228Z,13.03
2019-02-15T12:47:26.223Z,13.17
2019-02-15T12:48:26.226Z,13.09
2019-02-15T12:49:26.199Z,13.09
2019-02-15T12:50:26.183Z,13.09
2019-02-15T12:51:26.172Z,13.06
2019-02-15T12:52:26.173Z,13.04
2019-02-15T12:53:26.175Z,13.07
2019-02-15T12:54:26.142Z,13.14
2019-02-15T12:55:26.151Z,13.17
2019-02-15T12:56:26.118Z,13.18
2019-02-15T12:57:26.114Z,13.17
2019-02-15T12:58:26.141Z,13.18
2019-02-15T12:59:26.088Z,13.20
2019-02-15T13:00:26.072Z,13.14
2019-02-15T13:01:26.068Z,13.24
2019-02-15T13:02:26.059Z,13.18
2019-02-15T13:03:26.051Z,13.18
2019-02-15T13:04:26.045Z,13.24
2019-02-15T13:05:26.016Z,13.21
2019-02-15T13:06:28.772Z,13.20